This is the latest recevied weather packets stored in our database for station/object SY3EBK-13. If no packets are shown the sender has not sent any weather packets the latest 10 day(s).
| Time | Temp. | Humidity | Pressure | Rain* | Wind** | Luminosity | Snow |
|---|---|---|---|---|---|---|---|
| 1788412020 | 22.22° C | 48% | 914.8 hPa | - | 0 m/s | - | - |
| 1788411120 | 22.22° C | 48% | 914.8 hPa | - | 0 m/s | - | - |
| 1788410220 | 22.22° C | 48% | 914.8 hPa | - | 0 m/s | - | - |
| 1788409320 | 22.22° C | 45% | 914.7 hPa | - | 0 m/s | - | - |
| 1788408420 | 22.22° C | 48% | 914.6 hPa | - | 0 m/s | - | - |
| 1788407520 | 21.67° C | 49% | 914.8 hPa | - | 0 m/s | - | - |
| 1788406620 | 22.22° C | 48% | 914.6 hPa | - | 0 m/s | - | - |
| 1788405720 | 22.22° C | 47% | 914.6 hPa | - | 0 m/s | - | - |
| 1788404820 | 22.22° C | 46% | 914.6 hPa | - | 0 m/s | - | - |
| 1788403920 | 22.78° C | 46% | 914.6 hPa | - | 0 m/s | - | - |
| 1788403020 | 22.78° C | 47% | 914.6 hPa | - | 0 m/s | - | - |
| 1788402120 | 22.78° C | 46% | 914.7 hPa | - | 0 m/s | - | - |
| 1788380520 | 25.56° C | 43% | 916.2 hPa | - | 0 m/s | - | - |
| 1788377821 | 26.11° C | 43% | 916.4 hPa | - | 0 m/s | - | - |
| 1788376920 | 26.11° C | 42% | 916.5 hPa | - | 0 m/s | - | - |
| 1788373320 | 27.78° C | 40% | 916.3 hPa | - | 0 m/s | - | - |
| 1788370620 | 28.33° C | 38% | 915.8 hPa | - | 0 m/s | - | - |
| 1788370155 | 180.56° C | 1% | - | - | 0 m/s | - | - |
| 1788369255 | 28.33° C | 34% | 915.7 hPa | - | 0 m/s | - | - |
| 1788365655 | 30° C | 33% | 915.9 hPa | - | 0 m/s | - | - |
| 1788364755 | 30.56° C | 33% | 915.8 hPa | - | 0 m/s | - | - |
| 1788362955 | 30.56° C | 32% | 915.5 hPa | - | 0 m/s | - | - |
| 1788361155 | 30.56° C | 33% | 915.4 hPa | - | 0 m/s | - | - |
| 1788360255 | 30.56° C | 33% | 915.6 hPa | - | 0 m/s | - | - |
| 1788358455 | 30° C | 33% | 915.8 hPa | - | 0 m/s | - | - |
* Rain since midnight (hover to see other rain measurements)
** Current wind speed in m/s (hover to see current wind gust speed)